Time;durP1;ratioP1;P1;durP2;ratioP2;P2;SDS_P1;SDS_P2;PMS_P1;PMS_P2;Temp;Humidity;BMP_temperature;BMP_pressure;BME280_temperature;BME280_humidity;BME280_pressure;Samples;Min_cycle;Max_cycle;Signal;HPM_P1;HPM_P2
2021/05/20 00:01:49;;;;;;;5.57;4.80;;;13.20;99.90;;;;;;4105212;28;20105;-81
2021/05/20 00:03:49;;;;;;;6.53;5.20;;;13.20;99.90;;;;;;4105951;28;20070;-81
2021/05/20 00:05:50;;;;;;;5.50;4.78;;;13.20;99.90;;;;;;4119470;28;20558;-81
2021/05/20 00:07:50;;;;;;;6.43;4.93;;;13.30;99.90;;;;;;4122231;28;20034;-81
2021/05/20 00:09:51;;;;;;;6.18;4.93;;;13.30;99.90;;;;;;4124655;28;20034;-81
2021/05/20 00:11:52;;;;;;;5.68;4.50;;;13.30;99.90;;;;;;4121678;28;20038;-82
2021/05/20 00:13:52;;;;;;;5.60;5.00;;;13.20;99.90;;;;;;4122299;28;20022;-82
2021/05/20 00:15:53;;;;;;;7.30;5.57;;;13.30;99.90;;;;;;4122785;28;20363;-81
2021/05/20 00:17:54;;;;;;;7.93;6.03;;;13.30;99.90;;;;;;4104416;28;20030;-81
2021/05/20 00:19:54;;;;;;;7.78;5.88;;;13.20;99.90;;;;;;4126008;28;20410;-82
2021/05/20 00:21:55;;;;;;;8.65;5.72;;;13.20;99.90;;;;;;4108956;28;20109;-82
2021/05/20 00:23:56;;;;;;;7.53;5.80;;;13.20;99.90;;;;;;4122876;28;20077;-82
2021/05/20 00:25:56;;;;;;;6.20;5.18;;;13.20;99.90;;;;;;4125419;28;20015;-81
2021/05/20 00:27:57;;;;;;;7.20;5.65;;;13.20;99.90;;;;;;4125591;28;20115;-81
2021/05/20 00:29:57;;;;;;;6.72;5.40;;;13.20;99.90;;;;;;4106075;28;20047;-82
2021/05/20 00:31:58;;;;;;;6.10;5.50;;;13.20;99.90;;;;;;4126470;28;20042;-82
2021/05/20 00:33:59;;;;;;;7.35;6.10;;;13.10;99.90;;;;;;4124221;28;20043;-81
2021/05/20 00:35:59;;;;;;;7.88;5.97;;;13.10;99.90;;;;;;4108338;28;20053;-81
2021/05/20 00:38:00;;;;;;;8.23;5.85;;;13.10;99.90;;;;;;4140900;28;20057;-81
2021/05/20 00:40:01;;;;;;;6.40;5.45;;;13.10;99.90;;;;;;4109540;28;20047;-81
2021/05/20 00:42:11;;;;;;;8.02;5.90;;;13.00;99.90;;;;;;4123663;28;20058;-82
2021/05/20 00:44:11;;;;;;;6.28;5.57;;;13.00;99.90;;;;;;4123798;28;20066;-81
2021/05/20 00:46:13;;;;;;;8.25;5.93;;;13.00;99.90;;;;;;4125062;28;20035;-81
2021/05/20 00:48:13;;;;;;;8.57;6.38;;;13.00;99.90;;;;;;4123358;28;20041;-81
2021/05/20 00:50:14;;;;;;;6.35;5.40;;;13.00;99.90;;;;;;4123968;28;20154;-81
2021/05/20 00:52:15;;;;;;;9.38;6.00;;;12.90;99.90;;;;;;4108126;28;20035;-81
2021/05/20 00:54:16;;;;;;;10.57;5.85;;;12.90;99.90;;;;;;4124758;28;20435;-81
2021/05/20 00:56:21;;;;;;;8.23;5.82;;;12.90;99.90;;;;;;4108975;28;20030;-80
2021/05/20 00:58:22;;;;;;;7.00;6.03;;;12.80;99.90;;;;;;4137976;28;20056;-81
2021/05/20 01:00:24;;;;;;;8.50;6.30;;;12.80;99.90;;;;;;4124644;28;20031;-82
2021/05/20 01:02:25;;;;;;;6.85;5.65;;;12.80;99.90;;;;;;4123595;28;20023;-82
2021/05/20 01:04:26;;;;;;;8.02;6.45;;;12.80;99.90;;;;;;4107997;28;20354;-81
2021/05/20 01:06:27;;;;;;;7.30;5.32;;;12.80;99.90;;;;;;4107982;28;20061;-82
2021/05/20 01:08:27;;;;;;;7.70;6.53;;;12.80;99.90;;;;;;4123312;28;20034;-82
2021/05/20 01:10:28;;;;;;;7.53;5.97;;;12.80;99.90;;;;;;4123669;28;20027;-81
2021/05/20 01:12:29;;;;;;;8.60;6.07;;;12.80;99.90;;;;;;4123824;28;20488;-82
2021/05/20 01:14:36;;;;;;;7.25;5.90;;;12.70;99.90;;;;;;4123358;28;20042;-81
2021/05/20 01:16:37;;;;;;;5.68;5.00;;;12.70;99.90;;;;;;4124166;28;20038;-82
2021/05/20 01:18:38;;;;;;;7.30;5.82;;;12.80;99.90;;;;;;4125627;28;20080;-81
2021/05/20 01:20:41;;;;;;;6.70;5.60;;;12.80;99.90;;;;;;4121465;28;20047;-81
2021/05/20 01:22:41;;;;;;;7.53;6.10;;;12.80;99.90;;;;;;4109148;28;20069;-81
2021/05/20 01:24:43;;;;;;;6.85;5.63;;;12.70;99.90;;;;;;4123092;28;20042;-81
2021/05/20 01:26:43;;;;;;;7.30;5.95;;;12.70;99.90;;;;;;4107805;28;20066;-81
2021/05/20 01:28:44;;;;;;;7.80;5.80;;;12.70;99.90;;;;;;4124146;28;20084;-82
2021/05/20 01:30:47;;;;;;;7.32;6.05;;;12.70;99.90;;;;;;4108476;28;20035;-81
2021/05/20 01:32:48;;;;;;;;;;;12.70;99.90;;;;;;4132879;28;20351;-81
2021/05/20 01:34:58;;;;;;;7.35;6.25;;;12.70;99.90;;;;;;4123633;28;19921;-81
2021/05/20 01:37:06;;;;;;;9.80;7.30;;;12.60;99.90;;;;;;4124685;28;20054;-81
2021/05/20 01:39:06;;;;;;;8.13;6.50;;;12.60;99.90;;;;;;4123108;28;20042;-82
2021/05/20 01:41:12;;;;;;;10.07;7.90;;;12.60;99.90;;;;;;4108575;28;20051;-82
2021/05/20 01:43:12;;;;;;;9.50;7.22;;;12.60;99.90;;;;;;4123802;28;20031;-81
2021/05/20 01:45:13;;;;;;;8.98;6.97;;;12.60;99.90;;;;;;4125708;28;20027;-82
2021/05/20 01:47:14;;;;;;;9.70;7.15;;;12.60;99.90;;;;;;4125552;28;20046;-82
2021/05/20 01:49:15;;;;;;;8.75;6.95;;;12.50;99.90;;;;;;4126189;28;20049;-81
2021/05/20 01:51:20;;;;;;;8.85;7.50;;;12.50;99.90;;;;;;4123483;28;20084;-81
2021/05/20 01:53:21;;;;;;;9.27;7.50;;;12.50;99.90;;;;;;4108722;28;20086;-81
2021/05/20 01:55:21;;;;;;;9.50;8.27;;;12.50;99.90;;;;;;4122925;28;20045;-81
2021/05/20 01:57:22;;;;;;;8.85;7.95;;;12.50;99.90;;;;;;4123056;28;20061;-82
2021/05/20 01:59:23;;;;;;;9.43;7.18;;;12.50;99.90;;;;;;4123428;28;20054;-82
2021/05/20 02:01:23;;;;;;;11.25;8.30;;;12.40;99.90;;;;;;4125954;28;20093;-82
2021/05/20 02:03:24;;;;;;;9.75;8.00;;;12.50;99.90;;;;;;4123245;28;20041;-81
2021/05/20 02:05:25;;;;;;;10.25;7.47;;;12.40;99.90;;;;;;4122543;28;20041;-82
2021/05/20 02:07:26;;;;;;;10.15;7.82;;;12.40;99.90;;;;;;4123850;28;20030;-82
2021/05/20 02:09:26;;;;;;;10.60;8.00;;;12.40;99.90;;;;;;4125378;28;20026;-81
2021/05/20 02:11:27;;;;;;;9.50;7.68;;;12.40;99.90;;;;;;4108679;28;20066;-82
2021/05/20 02:13:28;;;;;;;9.70;7.75;;;12.40;99.90;;;;;;4122438;28;20084;-81
2021/05/20 02:15:28;;;;;;;11.80;8.48;;;12.30;99.90;;;;;;4123134;28;20034;-81
2021/05/20 02:17:29;;;;;;;9.85;7.65;;;12.30;99.90;;;;;;4124015;28;20030;-81
2021/05/20 02:19:29;;;;;;;11.27;8.68;;;12.30;99.90;;;;;;4127644;28;20302;-82
2021/05/20 02:21:30;;;;;;;10.63;8.68;;;12.30;99.90;;;;;;4122736;28;20283;-82
2021/05/20 02:23:31;;;;;;;10.25;8.25;;;12.30;99.90;;;;;;4106269;28;20145;-81
2021/05/20 02:25:32;;;;;;;9.40;7.88;;;12.30;99.90;;;;;;4106772;28;20065;-81
2021/05/20 02:27:33;;;;;;;10.30;8.32;;;12.30;99.90;;;;;;4108530;28;20043;-81
2021/05/20 02:35:27;;;;;;;9.38;7.72;;;12.20;99.90;;;;;;4124592;28;20037;-81
2021/05/20 02:37:27;;;;;;;8.13;6.90;;;12.20;99.90;;;;;;4121559;28;20045;-81
2021/05/20 02:39:28;;;;;;;11.80;8.20;;;12.20;99.90;;;;;;4106741;28;20368;-81
2021/05/20 02:41:29;;;;;;;10.32;8.38;;;12.20;99.90;;;;;;4105390;28;20038;-81
2021/05/20 02:43:31;;;;;;;11.50;8.48;;;12.10;99.90;;;;;;4108277;28;20023;-81
2021/05/20 02:45:32;;;;;;;11.00;9.05;;;12.20;99.90;;;;;;4121580;28;20322;-82
2021/05/20 02:47:33;;;;;;;13.20;8.95;;;12.10;99.90;;;;;;4105344;28;20038;-82
2021/05/20 02:49:34;;;;;;;12.50;9.85;;;12.10;99.90;;;;;;4104961;28;20092;-81
2021/05/20 02:51:35;;;;;;;17.63;9.65;;;12.10;99.90;;;;;;4134498;28;20077;-81
2021/05/20 02:53:35;;;;;;;12.32;9.60;;;12.10;99.90;;;;;;4115701;28;20061;-81
2021/05/20 02:55:36;;;;;;;11.40;9.77;;;12.10;99.90;;;;;;4112131;28;20056;-81
2021/05/20 02:57:36;;;;;;;13.45;10.35;;;12.00;99.90;;;;;;4115988;28;20042;-81
2021/05/20 02:59:38;;;;;;;13.63;10.23;;;12.10;99.90;;;;;;4105245;28;20093;-81
2021/05/20 03:01:44;;;;;;;13.87;10.23;;;12.00;99.90;;;;;;4121369;28;20054;-81
2021/05/20 03:03:44;;;;;;;14.48;10.82;;;12.00;99.90;;;;;;4116639;28;20046;-82
2021/05/20 03:05:45;;;;;;;13.07;10.30;;;12.00;99.90;;;;;;4121850;28;20054;-82
2021/05/20 03:07:46;;;;;;;13.10;10.23;;;12.00;99.90;;;;;;4122889;28;20306;-81
2021/05/20 03:09:47;;;;;;;12.95;10.30;;;11.90;99.90;;;;;;4121250;28;20311;-82
2021/05/20 03:11:48;;;;;;;13.68;10.68;;;12.00;99.90;;;;;;4121654;28;20038;-81
2021/05/20 03:13:48;;;;;;;13.20;10.75;;;11.90;99.90;;;;;;4105175;28;20045;-81
2021/05/20 03:15:49;;;;;;;13.23;10.35;;;11.90;99.90;;;;;;4138344;28;20421;-82
2021/05/20 03:17:50;;;;;;;12.77;10.40;;;11.90;99.90;;;;;;4105778;28;20462;-81
2021/05/20 03:19:50;;;;;;;15.25;9.98;;;11.90;99.90;;;;;;4122023;28;20069;-81
2021/05/20 03:21:51;;;;;;;15.63;10.52;;;11.90;99.90;;;;;;4104996;28;20034;-81
2021/05/20 03:23:54;;;;;;;12.80;9.77;;;11.80;99.90;;;;;;4122134;28;20112;-81
2021/05/20 03:25:55;;;;;;;13.38;9.80;;;11.90;99.90;;;;;;4120530;28;20109;-82
2021/05/20 03:27:55;;;;;;;11.40;8.63;;;11.90;99.90;;;;;;4122825;28;20491;-81
2021/05/20 03:29:56;;;;;;;11.02;8.70;;;11.80;99.90;;;;;;4105767;28;20035;-81
2021/05/20 03:31:56;;;;;;;13.00;9.45;;;11.80;99.90;;;;;;4122099;28;20116;-82
2021/05/20 03:33:57;;;;;;;13.35;9.82;;;11.80;99.90;;;;;;4121548;28;20034;-81
2021/05/20 03:35:58;;;;;;;12.68;10.00;;;11.80;99.90;;;;;;4121800;28;20069;-81
2021/05/20 03:37:58;;;;;;;14.48;11.05;;;11.80;99.90;;;;;;4102167;28;20042;-81
2021/05/20 03:39:59;;;;;;;16.80;10.60;;;11.80;99.90;;;;;;4103472;28;20488;-81
2021/05/20 03:42:00;;;;;;;14.60;11.35;;;11.80;99.90;;;;;;4122210;28;20034;-81
2021/05/20 03:44:01;;;;;;;16.33;12.27;;;11.80;99.90;;;;;;4120432;28;20463;-82
2021/05/20 03:46:03;;;;;;;18.90;12.88;;;11.80;99.90;;;;;;4120596;28;20096;-82
2021/05/20 03:48:04;;;;;;;19.88;14.52;;;11.70;99.90;;;;;;4121534;28;20327;-81
2021/05/20 03:50:05;;;;;;;19.60;14.75;;;11.70;99.90;;;;;;4106141;28;20797;-81
2021/05/20 03:52:06;;;;;;;26.55;17.92;;;11.70;99.90;;;;;;4122090;28;20061;-81
2021/05/20 03:54:07;;;;;;;32.00;20.73;;;11.70;99.90;;;;;;4121804;28;20777;-81
2021/05/20 03:56:08;;;;;;;29.55;20.25;;;11.60;99.90;;;;;;4120044;28;20040;-81
2021/05/20 03:58:08;;;;;;;30.17;20.85;;;11.60;99.90;;;;;;4105455;28;20043;-81
2021/05/20 04:00:09;;;;;;;31.40;22.08;;;11.60;99.90;;;;;;4121332;28;20034;-81
2021/05/20 04:02:10;;;;;;;30.70;21.85;;;11.60;99.90;;;;;;4120755;28;20042;-81
2021/05/20 04:04:14;;;;;;;32.92;22.17;;;11.50;99.90;;;;;;4121674;28;20403;-81
2021/05/20 04:06:15;;;;;;;40.42;26.88;;;11.50;99.90;;;;;;4104793;28;20577;-81
2021/05/20 04:08:15;;;;;;;41.00;26.38;;;11.50;99.90;;;;;;4120868;28;20422;-81
2021/05/20 04:10:16;;;;;;;34.05;23.70;;;11.40;99.90;;;;;;4118821;28;20031;-81
2021/05/20 04:12:17;;;;;;;38.55;24.55;;;11.40;99.90;;;;;;4104368;28;20030;-81
2021/05/20 04:14:17;;;;;;;33.70;23.50;;;11.40;99.90;;;;;;4136778;28;20506;-81
2021/05/20 04:16:23;;;;;;;42.03;28.52;;;11.40;99.90;;;;;;4121289;28;20030;-81
2021/05/20 04:18:24;;;;;;;33.72;23.73;;;11.40;99.90;;;;;;4106052;28;20061;-81
2021/05/20 04:20:24;;;;;;;40.60;28.42;;;11.40;99.90;;;;;;4137061;28;20044;-81
2021/05/20 04:22:25;;;;;;;36.08;24.60;;;11.40;99.90;;;;;;4120469;28;20076;-81
2021/05/20 04:24:27;;;;;;;33.17;24.88;;;11.30;99.90;;;;;;4120786;28;20418;-81
2021/05/20 04:26:28;;;;;;;38.88;26.92;;;11.30;99.90;;;;;;4103993;28;20045;-82
2021/05/20 04:28:28;;;;;;;32.95;22.60;;;11.30;99.90;;;;;;4122181;28;20027;-81
2021/05/20 04:30:30;;;;;;;32.17;22.88;;;11.30;99.90;;;;;;4122081;28;20039;-81
2021/05/20 04:32:30;;;;;;;38.17;27.55;;;11.30;99.90;;;;;;4104051;28;20093;-81
2021/05/20 04:34:31;;;;;;;35.40;23.90;;;11.30;99.90;;;;;;4119411;28;20038;-81
2021/05/20 04:36:32;;;;;;;36.38;24.65;;;11.30;99.90;;;;;;4123055;28;20402;-81
2021/05/20 04:38:32;;;;;;;33.80;23.25;;;11.30;99.90;;;;;;4123020;28;20597;-81
2021/05/20 04:40:34;;;;;;;34.92;23.75;;;11.30;99.90;;;;;;4123630;28;20085;-81
2021/05/20 04:42:35;;;;;;;41.70;28.20;;;11.30;99.90;;;;;;4105107;28;20511;-81
2021/05/20 04:44:35;;;;;;;36.42;25.42;;;11.30;99.90;;;;;;4121809;28;20034;-81
2021/05/20 04:46:36;;;;;;;35.92;23.75;;;11.30;99.90;;;;;;4122800;28;20034;-81
2021/05/20 04:48:36;;;;;;;32.33;23.73;;;11.30;99.90;;;;;;4119707;28;20054;-81
2021/05/20 04:50:37;;;;;;;35.17;23.75;;;11.30;99.90;;;;;;4121427;28;20140;-81
2021/05/20 04:52:39;;;;;;;34.08;22.60;;;11.30;99.90;;;;;;4119274;28;20430;-81
2021/05/20 04:54:40;;;;;;;42.30;26.45;;;11.30;99.90;;;;;;4122062;28;20046;-81
2021/05/20 04:56:41;;;;;;;32.85;23.45;;;11.30;99.90;;;;;;4100888;28;20102;-81
2021/05/20 04:58:41;;;;;;;32.22;21.92;;;11.30;99.90;;;;;;4116484;28;20408;-81
2021/05/20 05:00:42;;;;;;;30.13;20.50;;;11.30;99.90;;;;;;4119380;28;20114;-81
2021/05/20 05:02:42;;;;;;;31.65;22.02;;;11.40;99.90;;;;;;4121239;28;20030;-81
2021/05/20 05:04:43;;;;;;;36.88;24.30;;;11.40;99.90;;;;;;4121737;28;20034;-81
2021/05/20 05:06:44;;;;;;;32.05;21.50;;;11.40;99.90;;;;;;4107124;28;20114;-81
2021/05/20 05:08:44;;;;;;;32.85;22.38;;;11.40;99.90;;;;;;4107352;28;20511;-81
2021/05/20 05:10:45;;;;;;;32.25;22.13;;;11.40;99.90;;;;;;4104886;28;20046;-81
2021/05/20 05:12:45;;;;;;;33.28;22.05;;;11.40;99.90;;;;;;4107559;28;20058;-81
2021/05/20 05:14:47;;;;;;;29.73;20.45;;;11.40;99.90;;;;;;4122787;28;20034;-81
2021/05/20 05:16:47;;;;;;;33.63;21.13;;;11.40;99.90;;;;;;4108071;28;20038;-82
2021/05/20 05:18:48;;;;;;;34.53;23.25;;;11.40;99.90;;;;;;4124865;28;20364;-81
2021/05/20 05:20:48;;;;;;;38.90;24.60;;;11.40;99.90;;;;;;4131327;28;20030;-81
2021/05/20 05:22:49;;;;;;;35.03;22.17;;;11.40;99.90;;;;;;4103917;28;20050;-81
2021/05/20 05:24:50;;;;;;;35.65;23.13;;;11.40;99.90;;;;;;4126503;28;20031;-81
2021/05/20 05:26:50;;;;;;;38.38;24.77;;;11.50;99.90;;;;;;4126361;28;20038;-81
2021/05/20 05:28:51;;;;;;;45.00;28.77;;;11.50;99.90;;;;;;4111257;28;21456;-81
2021/05/20 05:30:52;;;;;;;38.53;25.60;;;11.30;99.90;;;;;;4119990;28;20038;-81
2021/05/20 05:32:52;;;;;;;39.53;25.55;;;11.30;99.90;;;;;;4124648;28;20150;-81
2021/05/20 05:34:53;;;;;;;34.67;23.40;;;11.20;99.90;;;;;;4113014;28;20074;-81
2021/05/20 05:36:53;;;;;;;32.90;21.98;;;11.30;99.90;;;;;;4076893;28;20502;-81
2021/05/20 05:38:54;;;;;;;38.03;25.13;;;11.30;99.90;;;;;;4130832;28;20034;-81
2021/05/20 05:40:54;;;;;;;39.50;24.20;;;11.30;99.90;;;;;;4116876;28;20568;-81
2021/05/20 05:42:55;;;;;;;37.85;24.45;;;11.30;99.90;;;;;;4128723;28;20089;-81
2021/05/20 05:44:56;;;;;;;42.00;26.60;;;11.30;99.90;;;;;;4128635;28;20601;-81
2021/05/20 05:46:56;;;;;;;35.67;23.95;;;11.40;99.90;;;;;;4107145;28;20474;-81
2021/05/20 05:49:00;;;;;;;36.50;23.30;;;11.40;99.90;;;;;;4124258;28;20034;-81
2021/05/20 05:51:01;;;;;;;42.15;26.20;;;11.40;99.90;;;;;;4124824;28;20034;-81
2021/05/20 05:53:03;;;;;;;44.60;27.38;;;11.40;99.90;;;;;;4128374;28;20164;-81
2021/05/20 05:55:05;;;;;;;43.88;27.42;;;11.40;99.90;;;;;;4107585;28;20027;-81
2021/05/20 05:57:06;;;;;;;46.35;28.70;;;11.40;99.90;;;;;;4122426;28;20045;-81
2021/05/20 05:59:06;;;;;;;45.28;27.33;;;11.40;99.90;;;;;;4127276;28;20038;-81
2021/05/20 06:01:07;;;;;;;44.15;26.02;;;11.40;99.90;;;;;;4123490;28;20089;-81
2021/05/20 06:03:07;;;;;;;44.30;26.77;;;11.30;99.90;;;;;;4124618;28;20519;-81
2021/05/20 06:05:09;;;;;;;40.58;25.65;;;11.30;99.90;;;;;;4113907;28;20082;-81
2021/05/20 06:07:09;;;;;;;46.03;28.27;;;11.30;99.90;;;;;;4121663;28;20116;-81
2021/05/20 06:09:10;;;;;;;45.80;26.58;;;11.30;99.90;;;;;;4108664;28;20043;-81
2021/05/20 06:11:11;;;;;;;46.47;28.45;;;11.30;99.90;;;;;;4142791;28;20147;-81
2021/05/20 06:13:12;;;;;;;50.95;29.30;;;11.30;99.90;;;;;;4123968;28;20092;-81
2021/05/20 06:15:13;;;;;;;43.03;25.55;;;11.30;99.90;;;;;;4129692;28;20043;-81
2021/05/20 06:17:14;;;;;;;47.22;28.50;;;11.40;99.90;;;;;;4108339;28;20415;-81
2021/05/20 06:19:14;;;;;;;43.00;25.77;;;11.30;99.90;;;;;;4135377;28;20120;-81
2021/05/20 06:21:15;;;;;;;43.35;26.20;;;11.30;99.90;;;;;;4122105;28;20525;-82
2021/05/20 06:23:16;;;;;;;44.35;27.20;;;11.30;99.90;;;;;;4110696;28;20066;-79
2021/05/20 06:25:17;;;;;;;45.63;27.30;;;11.40;99.90;;;;;;4123810;28;20035;-79
2021/05/20 06:27:18;;;;;;;49.75;28.40;;;11.40;99.90;;;;;;4124810;28;20045;-80
2021/05/20 06:29:19;;;;;;;43.08;26.13;;;11.40;99.90;;;;;;4124506;28;20030;-79
2021/05/20 06:31:20;;;;;;;44.28;25.95;;;11.40;99.90;;;;;;4125781;28;20407;-79
2021/05/20 06:33:21;;;;;;;44.80;26.15;;;11.40;99.90;;;;;;4123445;28;20133;-79
2021/05/20 06:35:21;;;;;;;47.88;28.50;;;11.40;99.90;;;;;;4124545;28;20035;-81
2021/05/20 06:37:22;;;;;;;48.28;28.88;;;11.50;99.90;;;;;;4125884;28;20467;-81
2021/05/20 06:39:23;;;;;;;52.30;30.50;;;11.50;99.90;;;;;;4130168;28;20130;-80
2021/05/20 06:41:24;;;;;;;47.17;28.40;;;11.40;99.90;;;;;;4128040;28;20030;-81
2021/05/20 06:43:24;;;;;;;49.25;29.65;;;11.40;99.90;;;;;;4124071;28;20062;-81
2021/05/20 06:45:25;;;;;;;48.25;29.30;;;11.40;99.90;;;;;;4123804;28;20118;-80
2021/05/20 06:47:26;;;;;;;47.33;28.83;;;11.40;99.90;;;;;;4125578;28;20034;-80
2021/05/20 06:49:29;;;;;;;49.97;29.90;;;11.40;99.90;;;;;;4112131;28;20054;-80
2021/05/20 06:51:30;;;;;;;45.03;27.75;;;11.40;99.90;;;;;;4131390;28;20120;-80
2021/05/20 06:53:47;;;;;;;42.28;25.17;;;11.40;99.90;;;;;;4125083;28;20038;-80
2021/05/20 06:55:51;;;;;;;41.72;25.23;;;11.50;99.90;;;;;;4125201;28;20031;-79
2021/05/20 07:00:05;;;;;;;41.95;24.73;;;11.60;99.90;;;;;;4141399;28;20062;-79
2021/05/20 07:02:07;;;;;;;45.33;25.58;;;11.60;99.90;;;;;;4128729;28;20494;-79
2021/05/20 07:04:08;;;;;;;45.42;27.30;;;11.60;99.90;;;;;;4127996;28;20030;-79
2021/05/20 07:06:12;;;;;;;41.88;25.13;;;11.60;99.90;;;;;;4124290;28;20031;-79
2021/05/20 07:08:21;;;;;;;47.30;28.38;;;11.60;99.90;;;;;;4122636;28;20414;-80
2021/05/20 07:10:21;;;;;;;47.25;28.20;;;11.60;99.90;;;;;;4113525;28;20034;-80
2021/05/20 07:12:22;;;;;;;46.55;27.70;;;11.50;99.90;;;;;;4133201;28;20030;-80
2021/05/20 07:14:26;;;;;;;41.58;25.75;;;11.40;99.90;;;;;;4128944;28;20092;-80
2021/05/20 07:16:36;;;;;;;43.67;26.33;;;11.40;99.90;;;;;;4133717;28;20038;-80
2021/05/20 07:18:36;;;;;;;39.30;23.88;;;11.50;99.90;;;;;;4121835;28;20040;-80
2021/05/20 07:20:43;;;;;;;41.72;24.80;;;11.50;99.90;;;;;;4127546;28;20057;-80
2021/05/20 07:22:45;;;;;;;42.83;25.80;;;11.50;99.90;;;;;;4115494;28;20658;-79
2021/05/20 07:24:55;;;;;;;43.38;25.70;;;11.60;99.90;;;;;;4127441;28;20670;-80
2021/05/20 07:27:10;;;;;;;43.55;25.02;;;11.60;99.90;;;;;;4123698;28;20046;-80
2021/05/20 07:29:11;;;;;;;50.08;27.70;;;11.60;99.90;;;;;;4127232;28;20031;-80
2021/05/20 07:31:19;;;;;;;52.28;29.30;;;11.60;99.90;;;;;;4127065;28;20041;-80
2021/05/20 07:33:28;;;;;;;53.92;28.73;;;11.70;99.90;;;;;;4129655;28;20061;-79
2021/05/20 07:35:36;;;;;;;55.13;31.00;;;11.70;99.90;;;;;;4128680;28;20030;-79
2021/05/20 07:37:38;;;;;;;59.80;30.83;;;11.70;99.90;;;;;;4126808;28;20108;-80
2021/05/20 07:39:40;;;;;;;59.13;30.73;;;11.70;99.90;;;;;;4125346;28;20110;-80
2021/05/20 07:41:50;;;;;;;59.80;31.20;;;11.70;99.90;;;;;;4125182;28;20038;-79
2021/05/20 07:43:50;;;;;;;52.85;28.65;;;11.80;99.90;;;;;;4146277;28;20119;-79
2021/05/20 07:45:52;;;;;;;66.85;35.00;;;11.80;99.90;;;;;;4129732;28;20038;-79
2021/05/20 07:47:54;;;;;;;56.88;31.17;;;11.80;99.90;;;;;;4109754;28;20046;-79
2021/05/20 07:49:58;;;;;;;72.03;36.63;;;11.80;99.90;;;;;;4126410;28;20421;-79
2021/05/20 07:52:05;;;;;;;64.93;33.00;;;11.80;99.90;;;;;;4126587;28;20026;-79
2021/05/20 07:54:19;;;;;;;60.45;31.80;;;11.80;99.90;;;;;;4109334;28;20031;-80
2021/05/20 07:56:20;;;;;;;59.15;31.00;;;11.90;99.90;;;;;;4110303;28;20042;-79
2021/05/20 07:58:21;;;;;;;57.03;30.80;;;11.90;99.90;;;;;;4126543;28;20092;-79
2021/05/20 08:00:24;;;;;;;65.82;34.42;;;11.90;99.90;;;;;;4125480;28;20051;-79
2021/05/20 08:04:33;;;;;;;63.83;33.55;;;11.90;99.90;;;;;;4128151;28;20100;-79
2021/05/20 08:07:16;;;;;;;60.50;31.50;;;11.90;99.90;;;;;;4132256;28;20026;-79
2021/05/20 08:09:21;;;;;;;65.78;33.55;;;11.90;99.90;;;;;;4126110;28;20046;-81
2021/05/20 08:11:24;;;;;;;63.00;33.88;;;11.90;99.90;;;;;;4131357;28;20049;-80
2021/05/20 08:13:25;;;;;;;75.93;37.42;;;12.00;99.90;;;;;;4129551;28;20038;-80
2021/05/20 08:15:26;;;;;;;66.35;35.83;;;12.00;99.90;;;;;;4112942;28;20027;-79
2021/05/20 08:17:26;;;;;;;73.50;35.70;;;12.00;99.90;;;;;;4124997;28;20061;-79
2021/05/20 08:19:27;;;;;;;70.95;35.25;;;12.00;99.90;;;;;;4128259;28;20030;-79
2021/05/20 08:21:28;;;;;;;72.30;35.35;;;12.00;99.90;;;;;;4106749;28;20109;-79
2021/05/20 08:23:35;;;;;;;63.60;33.10;;;12.00;99.90;;;;;;4127261;28;20441;-79
2021/05/20 08:25:36;;;;;;;68.28;35.92;;;12.10;99.90;;;;;;4125043;28;20041;-79
2021/05/20 08:27:36;;;;;;;67.15;34.63;;;12.10;99.90;;;;;;4130842;28;20034;-79
2021/05/20 08:29:43;;;;;;;73.43;37.50;;;12.10;99.90;;;;;;4101951;28;20388;-79
2021/05/20 08:31:45;;;;;;;69.90;35.50;;;12.10;99.90;;;;;;4126638;28;20133;-80
2021/05/20 08:33:47;;;;;;;61.70;32.22;;;12.10;99.90;;;;;;4125157;28;20352;-80
2021/05/20 08:35:57;;;;;;;63.28;34.30;;;12.10;99.90;;;;;;4127499;28;20479;-79
2021/05/20 08:37:58;;;;;;;56.65;30.25;;;12.20;99.90;;;;;;4126640;28;20071;-79
2021/05/20 08:40:09;;;;;;;55.90;29.35;;;12.30;99.90;;;;;;4126278;28;20446;-79
2021/05/20 08:42:10;;;;;;;60.05;32.88;;;12.40;99.90;;;;;;4128058;28;20038;-79
2021/05/20 08:44:17;;;;;;;63.85;34.72;;;12.40;99.90;;;;;;4132116;28;20031;-79
2021/05/20 08:46:22;;;;;;;57.45;31.83;;;12.40;99.90;;;;;;4131515;28;20554;-79
2021/05/20 08:48:25;;;;;;;55.35;30.08;;;12.50;99.90;;;;;;4127644;28;20033;-79
2021/05/20 08:50:33;;;;;;;44.15;27.45;;;12.60;99.90;;;;;;4130649;28;20034;-79
2021/05/20 08:52:38;;;;;;;42.80;25.33;;;12.60;99.90;;;;;;4124620;28;20033;-79
2021/05/20 08:54:41;;;;;;;37.65;23.40;;;12.70;99.90;;;;;;4108788;28;20034;-79
2021/05/20 08:56:45;;;;;;;42.90;26.35;;;12.70;99.90;;;;;;4121473;28;20034;-79
2021/05/20 08:58:46;;;;;;;41.33;25.17;;;12.80;99.90;;;;;;4136282;28;20402;-79
2021/05/20 09:00:56;;;;;;;37.70;23.27;;;12.90;99.90;;;;;;4113262;28;20089;-79
2021/05/20 09:03:08;;;;;;;35.13;21.80;;;12.90;99.90;;;;;;4129767;28;20023;-79
2021/05/20 09:05:11;;;;;;;31.67;21.67;;;13.00;99.90;;;;;;4107512;28;20618;-79
2021/05/20 09:07:13;;;;;;;37.90;23.00;;;13.00;99.90;;;;;;4129993;28;20414;-79
2021/05/20 09:09:18;;;;;;;33.40;22.90;;;13.10;99.90;;;;;;4129856;28;20077;-79
2021/05/20 09:11:25;;;;;;;33.42;21.05;;;13.20;99.90;;;;;;4127490;28;20100;-79
2021/05/20 09:13:34;;;;;;;38.05;24.42;;;13.40;99.90;;;;;;4136409;28;20030;-79
2021/05/20 09:15:37;;;;;;;33.42;22.13;;;13.50;99.90;;;;;;4130582;28;20029;-79
2021/05/20 09:17:44;;;;;;;;;;;13.70;99.90;;;;;;4129672;28;20048;-79
2021/05/20 09:19:58;;;;;;;33.55;22.52;;;13.80;99.90;;;;;;4127278;28;19916;-79
2021/05/20 09:22:07;;;;;;;37.13;23.55;;;13.90;99.90;;;;;;4125524;28;20093;-79
2021/05/20 09:24:08;;;;;;;39.33;25.08;;;14.10;99.90;;;;;;4113944;28;20044;-79
2021/05/20 09:26:31;;;;;;;34.05;22.33;;;14.20;99.90;;;;;;4127802;28;20530;-79
2021/05/20 09:28:42;;;;;;;33.38;21.40;;;14.40;99.90;;;;;;4130049;28;20049;-79
2021/05/20 09:30:46;;;;;;;34.17;22.48;;;14.50;99.90;;;;;;4128539;28;20061;-79
2021/05/20 09:32:52;;;;;;;31.45;21.25;;;14.70;99.90;;;;;;4112489;28;20034;-80
2021/05/20 09:35:11;;;;;;;30.17;19.55;;;14.70;99.90;;;;;;4130723;28;20037;-79
2021/05/20 09:37:13;;;;;;;27.95;18.92;;;14.80;99.90;;;;;;4130094;28;20030;-79
2021/05/20 09:39:15;;;;;;;29.02;19.25;;;14.90;99.90;;;;;;4130290;28;20054;-79
2021/05/20 09:41:19;;;;;;;28.65;18.55;;;14.90;99.90;;;;;;4127972;28;20442;-79
2021/05/20 09:43:32;;;;;;;26.42;16.98;;;15.00;99.90;;;;;;4131104;28;20046;-79
2021/05/20 09:45:34;;;;;;;26.10;17.73;;;15.00;99.90;;;;;;4128977;28;20042;-79
2021/05/20 09:47:38;;;;;;;;;;;15.00;99.90;;;;;;4134194;28;20034;-79
2021/05/20 09:50:00;;;;;;;28.10;18.73;;;15.10;99.90;;;;;;4130090;28;20058;-79
2021/05/20 09:52:23;;;;;;;25.52;17.80;;;15.10;99.90;;;;;;4129468;28;20118;-79
2021/05/20 09:54:43;;;;;;;25.00;17.50;;;15.20;99.90;;;;;;4118664;28;20093;-79
2021/05/20 09:56:45;;;;;;;22.75;16.00;;;15.30;99.90;;;;;;4124756;28;20038;-79
2021/05/20 09:58:54;;;;;;;22.90;15.63;;;15.40;99.90;;;;;;4128345;28;20038;-79
2021/05/20 10:00:57;;;;;;;19.73;13.70;;;15.50;99.90;;;;;;4128113;28;20069;-79
2021/05/20 10:03:05;;;;;;;;;;;15.60;99.90;;;;;;4131611;28;20109;-79
2021/05/20 10:05:32;;;;;;;21.30;14.73;;;15.70;99.90;;;;;;4124288;28;20444;-79
2021/05/20 10:07:43;;;;;;;20.40;14.40;;;15.80;99.90;;;;;;4125500;28;20031;-79
2021/05/20 10:09:44;;;;;;;18.48;13.55;;;15.80;99.90;;;;;;4122777;28;20034;-79
2021/05/20 10:11:51;;;;;;;19.20;13.30;;;15.80;99.90;;;;;;4128725;28;20071;-79
2021/05/20 10:13:58;;;;;;;23.25;16.23;;;15.90;99.90;;;;;;4129200;28;20034;-79
2021/05/20 10:16:01;;;;;;;22.55;14.85;;;15.90;99.90;;;;;;4122562;28;20034;-78
2021/05/20 10:18:09;;;;;;;23.17;17.05;;;15.90;99.90;;;;;;4125216;28;20711;-79
2021/05/20 10:20:20;;;;;;;23.15;16.30;;;15.90;99.90;;;;;;4126400;28;20030;-79
2021/05/20 10:22:24;;;;;;;18.98;13.73;;;16.00;99.90;;;;;;4126709;28;20042;-79
2021/05/20 10:24:43;;;;;;;24.90;18.58;;;16.10;99.90;;;;;;4125318;28;20654;-79
2021/05/20 10:26:50;;;;;;;21.05;15.35;;;16.10;99.90;;;;;;4109487;28;20042;-79
2021/05/20 10:28:51;;;;;;;22.55;15.65;;;16.20;99.90;;;;;;4125412;28;20104;-79
2021/05/20 10:30:54;;;;;;;21.52;15.60;;;16.30;99.90;;;;;;4124478;28;20039;-79
2021/05/20 10:32:57;;;;;;;18.90;13.73;;;16.30;99.90;;;;;;4125160;28;20046;-79
2021/05/20 10:35:01;;;;;;;18.13;13.65;;;16.30;99.90;;;;;;4113844;28;20060;-79
2021/05/20 10:37:06;;;;;;;18.23;14.50;;;16.30;99.90;;;;;;4127346;28;20038;-79
2021/05/20 10:39:20;;;;;;;17.55;13.40;;;16.30;99.90;;;;;;4132117;28;20164;-79